Naples Municipal Airport
KAPF : now visible

Airfield :











YOU CAN JOIN US ON...

 
LOGIN :

Register | Disclaimer

   EN    FR    IT 

 









Legend :    VFR   Marginal VFR   IFR   Intensive IFR   Very Intensive IFR
Visi :
Ceiling :
>= 8 km
>= 3000ft
5 to 8 km
1000 to 3000 ft
1500m to 5 km
500 to 1000 ft
800 to 1500m
200 to 500 ft
< 800m
< 200 ft
Symbols :   Thunderstorms  Fog  Heavy snow  Heavy precipitations  Wind > 20 kt






- Airport Elevation : 8 ft


KAPF - Naples Municipal

CURRENT METAR :
  • 041853Z 26010KT 10SM CLR 32/27 A2996 RMK AO2 SLP145 T03220267

EXPIRED METARs :
  • 041653Z 26007KT 10SM FEW027 32/26 A2999 RMK AO2 SLP155 T03220256

TAF KAPF
Valid from the 04 at 18:00 until the 05 at 18:00 UTC


041720Z 0418/0518 25010KT P6SM VCTS SCT035CB BKN050
FM050200 VRB03KT P6SM FEW035 SCT250
FM051400 16008KT P6SM VCTS SCT030CB SCT050
FM051700 24010KT P6SM VCTS SCT030CB SCT050
KZMA FIR / North America



MET'MAP, your aeronautical weather chart ! - Copyright ORBIFLY December 2007 - Disclaimer

ORBIFLY MET'MAP TEAM :

Programming & Development : Alexandra Zaïnal
Concept & original design : Baudouin d'Aumeries
Assistance for programming : Marc-Olivier Méhu
Technical & hardware support : Manuel Goepfert

Contact : metmap@orbifly.com




SOURCES & CREDITS :

   NOAA       Earth
Advisory